Time;durP1;ratioP1;P1;durP2;ratioP2;P2;SDS_P1;SDS_P2;PMS_P1;PMS_P2;Temp;Humidity;BMP_temperature;BMP_pressure;BME280_temperature;BME280_humidity;BME280_pressure;Samples;Min_cycle;Max_cycle;Signal;HPM_P1;HPM_P2
2022/06/03 00:01:59;;;;;;;7.15;4.70;;;;;;;;;;5119323;27;20046;-57
2022/06/03 00:04:36;;;;;;;14.43;6.20;;;;;;;;;;5116467;27;20693;-57
2022/06/03 00:07:05;;;;;;;14.10;5.93;;;;;;;;;;5116637;27;20051;-57
2022/06/03 00:09:34;;;;;;;12.43;5.70;;;;;;;;;;5118369;27;20039;-56
2022/06/03 00:12:14;;;;;;;12.52;6.93;;;;;;;;;;5113653;27;20047;-56
2022/06/03 00:14:52;;;;;;;13.15;6.50;;;;;;;;;;5115165;28;20047;-56
2022/06/03 00:17:36;;;;;;;11.18;5.38;;;;;;;;;;5117283;27;20050;-57
2022/06/03 00:20:22;;;;;;;6.78;3.95;;;;;;;;;;5116423;28;20038;-57
2022/06/03 00:23:06;;;;;;;8.85;5.25;;;;;;;;;;5079159;28;20466;-57
2022/06/03 00:25:31;;;;;;;10.10;5.38;;;;;;;;;;5118404;28;20051;-56
2022/06/03 00:27:56;;;;;;;8.45;5.40;;;;;;;;;;5118344;28;20393;-56
2022/06/03 00:30:40;;;;;;;10.70;5.70;;;;;;;;;;5117058;28;20036;-57
2022/06/03 00:33:25;;;;;;;8.68;6.55;;;;;;;;;;5119785;28;20051;-57
2022/06/03 00:35:50;;;;;;;8.95;6.28;;;;;;;;;;5116798;28;20104;-57
2022/06/03 00:38:18;;;;;;;13.02;6.15;;;;;;;;;;5119159;28;20035;-56
2022/06/03 00:41:03;;;;;;;21.05;7.20;;;;;;;;;;5103061;27;20047;-56
2022/06/03 00:43:37;;;;;;;13.00;6.63;;;;;;;;;;5118084;28;20047;-56
2022/06/03 00:46:05;;;;;;;16.50;5.75;;;;;;;;;;5116433;27;20091;-57
2022/06/03 00:48:31;;;;;;;13.82;7.90;;;;;;;;;;5106334;27;20097;-56
2022/06/03 00:50:56;;;;;;;14.77;7.28;;;;;;;;;;5112616;28;20047;-57
2022/06/03 00:53:27;;;;;;;13.93;5.53;;;;;;;;;;5121797;28;20122;-57
2022/06/03 00:55:56;;;;;;;11.68;5.43;;;;;;;;;;5114876;27;20573;-57
2022/06/03 00:58:30;;;;;;;10.93;5.07;;;;;;;;;;5118214;28;20039;-57
2022/06/03 01:01:05;;;;;;;16.20;7.50;;;;;;;;;;5119517;28;20043;-57
2022/06/03 01:03:39;;;;;;;10.48;6.60;;;;;;;;;;5112739;27;20065;-57
2022/06/03 01:06:05;;;;;;;14.60;6.63;;;;;;;;;;5117664;27;20131;-57
2022/06/03 01:08:33;;;;;;;11.80;6.78;;;;;;;;;;5125232;27;20569;-56
2022/06/03 01:11:14;;;;;;;7.70;5.82;;;;;;;;;;5124786;27;20171;-57
2022/06/03 01:13:39;;;;;;;6.50;4.60;;;;;;;;;;5122691;27;20274;-57
2022/06/03 01:16:05;;;;;;;8.75;6.45;;;;;;;;;;5120056;27;20577;-57
2022/06/03 01:18:30;;;;;;;14.15;7.53;;;;;;;;;;5111067;27;20043;-57
2022/06/03 01:21:21;;;;;;;21.73;6.75;;;;;;;;;;5120820;27;20069;-56
2022/06/03 01:24:02;;;;;;;17.88;7.43;;;;;;;;;;5119160;27;20035;-57
2022/06/03 01:26:46;;;;;;;11.65;6.18;;;;;;;;;;5121073;27;20165;-57
2022/06/03 01:29:29;;;;;;;7.80;5.20;;;;;;;;;;5122260;27;20725;-57
2022/06/03 01:32:14;;;;;;;17.15;7.35;;;;;;;;;;5112950;27;20035;-57
2022/06/03 01:34:39;;;;;;;18.50;8.15;;;;;;;;;;5112675;27;20123;-58
2022/06/03 01:37:23;;;;;;;10.95;6.35;;;;;;;;;;5113276;27;20161;-57
2022/06/03 01:40:00;;;;;;;8.48;6.13;;;;;;;;;;5118355;27;20108;-57
2022/06/03 01:42:28;;;;;;;6.57;4.55;;;;;;;;;;5121378;27;20190;-57
2022/06/03 01:44:56;;;;;;;10.18;6.32;;;;;;;;;;5122053;27;20039;-57
2022/06/03 01:47:24;;;;;;;9.90;5.25;;;;;;;;;;5119394;27;20039;-56
2022/06/03 01:50:09;;;;;;;6.13;4.68;;;;;;;;;;5120887;27;20043;-58
2022/06/03 01:52:43;;;;;;;13.55;6.05;;;;;;;;;;5109851;27;20052;-56
2022/06/03 01:55:24;;;;;;;8.93;5.28;;;;;;;;;;5105071;27;20039;-57
2022/06/03 01:57:50;;;;;;;16.50;6.28;;;;;;;;;;5106610;27;20201;-56
2022/06/03 02:00:27;;;;;;;7.07;4.70;;;;;;;;;;5115063;27;20169;-56
2022/06/03 02:03:11;;;;;;;14.50;7.88;;;;;;;;;;5106902;27;20089;-56
2022/06/03 02:06:09;;;;;;;15.65;8.15;;;;;;;;;;5114584;27;20051;-57
2022/06/03 02:08:53;;;;;;;9.65;5.75;;;;;;;;;;5087057;27;20051;-56
2022/06/03 02:11:30;;;;;;;8.60;6.35;;;;;;;;;;5121161;27;20039;-56
2022/06/03 02:14:15;;;;;;;5.85;4.97;;;;;;;;;;5120039;27;20080;-56
2022/06/03 02:16:59;;;;;;;7.65;5.07;;;;;;;;;;5121418;27;20086;-56
2022/06/03 02:19:40;;;;;;;5.68;4.63;;;;;;;;;;5117871;27;20620;-56
2022/06/03 02:22:24;;;;;;;5.30;3.75;;;;;;;;;;5118647;27;20051;-57
2022/06/03 02:24:55;;;;;;;11.48;5.22;;;;;;;;;;5121760;27;20561;-56
2022/06/03 02:27:21;;;;;;;7.07;3.75;;;;;;;;;;5125198;27;21485;-57
2022/06/03 02:32:48;;;;;;;27.23;6.63;;;;;;;;;;5119793;27;20084;-56
2022/06/03 02:35:32;;;;;;;14.63;5.25;;;;;;;;;;5117740;27;20047;-56
2022/06/03 02:38:16;;;;;;;7.72;5.38;;;;;;;;;;5117862;27;20073;-56
2022/06/03 02:41:08;;;;;;;9.38;5.60;;;;;;;;;;5121221;27;20188;-57
2022/06/03 02:43:52;;;;;;;5.00;3.50;;;;;;;;;;5120692;27;20050;-56
2022/06/03 02:46:35;;;;;;;6.35;5.25;;;;;;;;;;5119901;27;20040;-57
2022/06/03 02:49:10;;;;;;;10.32;5.97;;;;;;;;;;5112383;27;20043;-57
2022/06/03 02:51:54;;;;;;;13.63;6.22;;;;;;;;;;5108892;27;20162;-56
2022/06/03 02:54:22;;;;;;;6.68;4.53;;;;;;;;;;5116875;27;20507;-56
2022/06/03 02:57:06;;;;;;;13.60;5.65;;;;;;;;;;5114633;27;20075;-57
2022/06/03 02:59:35;;;;;;;10.10;6.25;;;;;;;;;;5103841;27;20047;-56
2022/06/03 03:02:01;;;;;;;8.65;5.97;;;;;;;;;;5112435;27;20036;-56
2022/06/03 03:04:29;;;;;;;7.35;5.93;;;;;;;;;;5102432;27;20663;-56
2022/06/03 03:07:00;;;;;;;38.15;6.13;;;;;;;;;;5107528;27;20042;-56
2022/06/03 03:09:29;;;;;;;7.78;6.45;;;;;;;;;;5111794;27;20153;-56
2022/06/03 03:12:00;;;;;;;8.73;5.72;;;;;;;;;;5116855;27;20051;-56
2022/06/03 03:14:28;;;;;;;14.20;5.85;;;;;;;;;;5121913;27;20075;-57
2022/06/03 03:17:13;;;;;;;17.02;6.47;;;;;;;;;;5117449;27;20042;-56
2022/06/03 03:19:49;;;;;;;12.60;7.22;;;;;;;;;;5116531;27;20050;-56
2022/06/03 03:22:25;;;;;;;7.72;6.95;;;;;;;;;;5112627;27;20460;-56
2022/06/03 03:24:57;;;;;;;9.95;5.45;;;;;;;;;;5108576;27;20595;-57
2022/06/03 03:27:25;;;;;;;12.32;6.22;;;;;;;;;;5113560;27;20039;-57
2022/06/03 03:30:10;;;;;;;9.68;5.75;;;;;;;;;;5110901;27;20130;-56
2022/06/03 03:32:53;;;;;;;9.88;5.85;;;;;;;;;;5119209;27;20496;-56
2022/06/03 03:35:19;;;;;;;12.38;6.03;;;;;;;;;;5120252;27;20101;-57
2022/06/03 03:37:47;;;;;;;9.65;7.45;;;;;;;;;;5117915;27;20055;-56
2022/06/03 03:40:19;;;;;;;18.42;7.43;;;;;;;;;;5120352;27;20074;-57
2022/06/03 03:43:03;;;;;;;13.13;8.18;;;;;;;;;;5118579;27;20040;-56
2022/06/03 03:45:34;;;;;;;13.77;6.60;;;;;;;;;;5110400;27;20132;-57
2022/06/03 03:48:02;;;;;;;8.52;5.78;;;;;;;;;;5110144;27;20047;-57
2022/06/03 03:50:53;;;;;;;13.07;6.90;;;;;;;;;;5108836;27;20036;-56
2022/06/03 03:53:37;;;;;;;7.85;5.10;;;;;;;;;;5117717;27;20512;-57
2022/06/03 03:56:21;;;;;;;6.85;5.22;;;;;;;;;;5119889;27;20043;-56
2022/06/03 03:59:09;;;;;;;25.00;8.55;;;;;;;;;;5114489;27;20043;-57
2022/06/03 04:01:44;;;;;;;12.75;8.10;;;;;;;;;;5114821;27;20051;-57
2022/06/03 04:04:09;;;;;;;6.95;4.60;;;;;;;;;;5117170;27;20047;-57
2022/06/03 04:06:43;;;;;;;12.27;4.03;;;;;;;;;;5120028;27;20127;-56
2022/06/03 04:09:47;;;;;;;28.67;9.80;;;;;;;;;;5111912;27;20067;-56
2022/06/03 04:12:31;;;;;;;19.60;7.28;;;;;;;;;;5040869;28;20154;-56
2022/06/03 04:15:05;;;;;;;11.73;7.32;;;;;;;;;;5042632;28;20045;-56
2022/06/03 04:17:31;;;;;;;11.77;5.57;;;;;;;;;;5085592;27;20044;-57
2022/06/03 04:20:05;;;;;;;12.93;6.32;;;;;;;;;;5117004;27;20079;-56
2022/06/03 04:23:06;;;;;;;28.60;7.18;;;;;;;;;;5113991;28;20089;-56
2022/06/03 04:25:50;;;;;;;16.50;6.07;;;;;;;;;;5049920;28;20049;-56
2022/06/03 04:28:24;;;;;;;12.73;7.72;;;;;;;;;;5103675;28;20031;-56
2022/06/03 04:31:13;;;;;;;10.95;4.30;;;;;;;;;;5107943;28;20040;-56
2022/06/03 04:33:50;;;;;;;5.68;3.88;;;;;;;;;;5098015;28;20039;-56
2022/06/03 04:36:23;;;;;;;11.25;4.43;;;;;;;;;;5120606;28;20195;-56
2022/06/03 04:39:03;;;;;;;11.85;4.47;;;;;;;;;;5115841;28;20036;-56
2022/06/03 04:41:47;;;;;;;10.00;5.53;;;;;;;;;;5109797;27;20039;-56
2022/06/03 04:44:39;;;;;;;10.10;5.07;;;;;;;;;;5107380;27;20113;-56
2022/06/03 04:47:22;;;;;;;11.23;4.47;;;;;;;;;;5089472;27;20067;-56
2022/06/03 04:50:07;;;;;;;21.63;5.18;;;;;;;;;;5124076;27;20180;-57
2022/06/03 04:52:41;;;;;;;8.23;3.83;;;;;;;;;;5109970;27;20153;-56
2022/06/03 04:55:21;;;;;;;10.98;3.78;;;;;;;;;;5121401;27;20073;-57
2022/06/03 04:57:50;;;;;;;15.63;3.95;;;;;;;;;;5122532;27;20040;-56
2022/06/03 05:00:42;;;;;;;7.07;2.42;;;;;;;;;;5120517;27;20108;-57
2022/06/03 05:03:11;;;;;;;8.10;5.07;;;;;;;;;;5122425;27;20051;-56
2022/06/03 05:06:04;;;;;;;14.80;6.43;;;;;;;;;;5121988;27;20091;-56
2022/06/03 05:08:47;;;;;;;10.95;6.45;;;;;;;;;;5123005;27;20598;-57
2022/06/03 05:11:21;;;;;;;21.55;5.88;;;;;;;;;;5109427;27;20043;-56
2022/06/03 05:13:46;;;;;;;9.52;5.00;;;;;;;;;;5122529;27;20559;-56
2022/06/03 05:16:11;;;;;;;8.10;3.92;;;;;;;;;;5119146;27;20122;-57
2022/06/03 05:18:52;;;;;;;8.27;4.68;;;;;;;;;;5117428;27;20063;-57
2022/06/03 05:21:23;;;;;;;16.00;3.35;;;;;;;;;;5111104;27;20647;-56
2022/06/03 05:24:16;;;;;;;43.50;5.03;;;;;;;;;;5114514;27;20075;-56
2022/06/03 05:26:58;;;;;;;14.32;5.07;;;;;;;;;;5075062;27;20487;-56
2022/06/03 05:29:32;;;;;;;15.23;3.97;;;;;;;;;;5114604;27;20612;-57
2022/06/03 05:31:57;;;;;;;6.95;4.25;;;;;;;;;;5109583;27;20052;-57
2022/06/03 05:34:29;;;;;;;12.18;5.18;;;;;;;;;;5111014;27;20128;-56
2022/06/03 05:37:13;;;;;;;35.17;5.35;;;;;;;;;;5116305;27;20077;-56
2022/06/03 05:39:57;;;;;;;13.60;3.90;;;;;;;;;;5120030;27;20126;-57
2022/06/03 05:42:36;;;;;;;17.52;3.75;;;;;;;;;;5121944;27;20047;-57
2022/06/03 05:45:34;;;;;;;11.77;4.35;;;;;;;;;;5111758;27;20039;-56
2022/06/03 05:48:02;;;;;;;6.63;3.03;;;;;;;;;;5069136;27;20059;-56
2022/06/03 05:50:46;;;;;;;13.93;4.63;;;;;;;;;;5095924;27;20096;-57
2022/06/03 05:53:30;;;;;;;14.40;6.13;;;;;;;;;;5119511;27;20114;-56
2022/06/03 05:55:58;;;;;;;59.22;14.38;;;;;;;;;;5119211;27;20151;-56
2022/06/03 05:58:24;;;;;;;48.13;10.20;;;;;;;;;;5120444;27;20567;-56
2022/06/03 06:00:58;;;;;;;16.60;7.28;;;;;;;;;;5100461;27;20048;-57
2022/06/03 06:03:35;;;;;;;41.00;7.60;;;;;;;;;;5115638;27;20088;-57
2022/06/03 06:06:06;;;;;;;21.38;6.15;;;;;;;;;;5110466;27;20055;-57
2022/06/03 06:08:38;;;;;;;15.90;6.43;;;;;;;;;;5121623;27;20560;-56
2022/06/03 06:11:11;;;;;;;23.17;7.38;;;;;;;;;;5120762;27;20043;-56
2022/06/03 06:13:46;;;;;;;30.05;7.95;;;;;;;;;;5116139;27;20554;-57
2022/06/03 06:16:19;;;;;;;26.98;10.75;;;;;;;;;;5123533;27;20514;-56
2022/06/03 06:18:57;;;;;;;21.42;9.65;;;;;;;;;;5103133;27;20122;-56
2022/06/03 06:21:42;;;;;;;12.35;5.70;;;;;;;;;;5115647;27;20094;-56
2022/06/03 06:24:11;;;;;;;33.10;8.43;;;;;;;;;;5118758;27;20047;-56
2022/06/03 06:26:55;;;;;;;21.27;8.63;;;;;;;;;;5120808;27;20047;-56
2022/06/03 06:29:39;;;;;;;18.80;10.52;;;;;;;;;;5121343;27;20095;-56
2022/06/03 06:32:14;;;;;;;26.08;10.15;;;;;;;;;;5118249;27;20130;-56
2022/06/03 06:35:08;;;;;;;41.17;9.27;;;;;;;;;;5118514;27;20096;-56
2022/06/03 06:37:39;;;;;;;25.52;7.60;;;;;;;;;;5070775;27;20094;-56
2022/06/03 06:40:20;;;;;;;27.33;12.57;;;;;;;;;;5108949;27;20039;-56
2022/06/03 06:42:48;;;;;;;26.70;11.82;;;;;;;;;;5103715;27;20088;-57
2022/06/03 06:45:22;;;;;;;29.50;12.57;;;;;;;;;;5117620;27;20403;-56
2022/06/03 06:47:51;;;;;;;122.35;31.40;;;;;;;;;;5115182;27;20055;-57
2022/06/03 06:50:16;;;;;;;69.63;19.15;;;;;;;;;;5112393;27;20131;-57
2022/06/03 06:52:50;;;;;;;57.85;14.15;;;;;;;;;;5112199;27;20566;-54
2022/06/03 06:55:34;;;;;;;25.77;12.55;;;;;;;;;;5116149;27;20049;-56
2022/06/03 06:58:04;;;;;;;72.80;16.98;;;;;;;;;;5118166;27;20063;-54
2022/06/03 07:00:40;;;;;;;51.78;13.07;;;;;;;;;;5107290;27;20047;-53
2022/06/03 07:03:17;;;;;;;35.25;12.82;;;;;;;;;;5111425;27;20043;-57
2022/06/03 07:06:05;;;;;;;51.17;11.32;;;;;;;;;;5110365;27;20043;-57
2022/06/03 07:08:42;;;;;;;63.45;14.55;;;;;;;;;;5113465;27;20047;-57
2022/06/03 07:11:07;;;;;;;28.33;11.90;;;;;;;;;;5107536;27;20043;-56
2022/06/03 07:13:32;;;;;;;20.33;11.27;;;;;;;;;;5110634;27;20038;-52
2022/06/03 07:16:01;;;;;;;26.42;11.52;;;;;;;;;;5111069;27;20309;-52
2022/06/03 07:21:40;;;;;;;23.65;9.02;;;;;;;;;;5104984;27;20055;-54
2022/06/03 07:24:26;;;;;;;47.20;16.15;;;;;;;;;;5074874;27;20043;-52
2022/06/03 07:26:56;;;;;;;15.30;8.25;;;;;;;;;;5064700;27;20043;-56
2022/06/03 07:29:25;;;;;;;20.42;7.55;;;;;;;;;;5117796;27;20571;-57
2022/06/03 07:31:51;;;;;;;37.97;9.40;;;;;;;;;;5111550;27;20028;-56
2022/06/03 07:34:16;;;;;;;7.97;5.18;;;;;;;;;;5114338;27;20082;-56
2022/06/03 07:37:02;;;;;;;25.83;7.15;;;;;;;;;;5116472;27;20579;-56
2022/06/03 07:39:27;;;;;;;22.27;6.05;;;;;;;;;;5072038;27;20064;-56
2022/06/03 07:41:55;;;;;;;44.50;9.45;;;;;;;;;;5116876;27;20042;-56
2022/06/03 07:44:24;;;;;;;15.00;6.57;;;;;;;;;;5108679;27;20191;-56
2022/06/03 07:47:01;;;;;;;23.90;8.75;;;;;;;;;;5110466;27;20044;-54
2022/06/03 07:49:28;;;;;;;15.32;5.50;;;;;;;;;;5113263;27;20069;-68
2022/06/03 07:51:56;;;;;;;7.18;3.42;;;;;;;;;;5098826;27;20039;-76
2022/06/03 07:54:34;;;;;;;16.98;8.13;;;;;;;;;;5108486;27;20050;-70
2022/06/03 07:57:10;;;;;;;13.73;6.28;;;;;;;;;;5116490;27;20047;-64
2022/06/03 07:59:38;;;;;;;15.18;5.05;;;;;;;;;;5116302;27;20483;-67
2022/06/03 08:02:16;;;;;;;11.77;4.72;;;;;;;;;;5117574;27;20067;-65
2022/06/03 08:04:42;;;;;;;19.40;5.63;;;;;;;;;;5116299;27;20687;-68
2022/06/03 08:12:58;;;;;;;12.85;7.05;;;;;;;;;;5116238;27;20591;-65
2022/06/03 08:15:28;;;;;;;18.90;5.85;;;;;;;;;;5106682;27;20488;-73
2022/06/03 08:17:53;;;;;;;14.63;6.63;;;;;;;;;;5113146;27;20051;-66
2022/06/03 08:20:20;;;;;;;17.67;7.00;;;;;;;;;;5113448;27;20493;-65
2022/06/03 08:22:46;;;;;;;26.38;8.70;;;;;;;;;;5107223;28;20043;-66
2022/06/03 08:25:14;;;;;;;16.50;6.22;;;;;;;;;;5110268;28;20039;-66
2022/06/03 08:27:40;;;;;;;9.00;5.68;;;;;;;;;;5104079;27;20484;-65
2022/06/03 08:30:11;;;;;;;9.93;5.53;;;;;;;;;;5118173;28;20122;-66
2022/06/03 08:32:43;;;;;;;8.82;4.50;;;;;;;;;;5116741;28;20062;-66
2022/06/03 08:35:10;;;;;;;7.82;4.45;;;;;;;;;;5115775;28;20054;-67
2022/06/03 08:37:41;;;;;;;16.98;6.18;;;;;;;;;;5098999;28;20092;-66
2022/06/03 08:40:06;;;;;;;;;;;;;;;;;;5116418;27;20047;-65
2022/06/03 08:42:41;;;;;;;9.38;5.10;;;;;;;;;;5115390;28;19915;-65
2022/06/03 08:45:06;;;;;;;13.93;7.30;;;;;;;;;;5117732;28;20176;-64
2022/06/03 08:47:36;;;;;;;12.80;4.90;;;;;;;;;;5115789;28;20054;-66
2022/06/03 08:50:11;;;;;;;8.60;5.30;;;;;;;;;;5118330;28;20096;-65
2022/06/03 08:52:51;;;;;;;7.20;4.55;;;;;;;;;;5119138;28;20053;-65
2022/06/03 08:55:49;;;;;;;19.87;7.67;;;;;;;;;;5115183;28;20112;-66
2022/06/03 08:58:21;;;;;;;13.63;4.50;;;;;;;;;;5081413;28;20040;-66
2022/06/03 09:00:55;;;;;;;4.28;2.35;;;;;;;;;;5116427;28;20551;-64
2022/06/03 09:03:22;;;;;;;8.40;3.90;;;;;;;;;;5114565;28;20286;-64
2022/06/03 09:05:52;;;;;;;33.97;5.72;;;;;;;;;;5113254;28;20047;-64
2022/06/03 09:08:36;;;;;;;10.73;4.63;;;;;;;;;;5117921;27;20044;-65
2022/06/03 09:11:20;;;;;;;9.57;5.07;;;;;;;;;;5107389;28;20036;-65
2022/06/03 09:13:45;;;;;;;10.43;4.57;;;;;;;;;;5115303;27;20035;-64
2022/06/03 09:16:13;;;;;;;6.32;4.85;;;;;;;;;;5103870;27;20665;-65
2022/06/03 09:19:04;;;;;;;12.77;4.50;;;;;;;;;;5112323;28;20035;-64
2022/06/03 09:21:33;;;;;;;10.15;4.25;;;;;;;;;;5089021;28;20498;-65
2022/06/03 09:24:01;;;;;;;26.02;4.85;;;;;;;;;;5110186;27;20803;-64
2022/06/03 09:26:26;;;;;;;12.25;4.80;;;;;;;;;;5115803;28;20064;-63
2022/06/03 09:28:53;;;;;;;44.05;11.07;;;;;;;;;;5113579;27;20061;-64
2022/06/03 09:31:19;;;;;;;13.27;4.50;;;;;;;;;;5120713;27;20159;-64
2022/06/03 09:33:45;;;;;;;5.25;2.15;;;;;;;;;;5117825;27;20550;-64
2022/06/03 09:36:15;;;;;;;9.63;3.30;;;;;;;;;;5116739;27;20078;-65
2022/06/03 09:38:49;;;;;;;11.57;5.00;;;;;;;;;;5108874;27;20200;-65
2022/06/03 09:41:15;;;;;;;4.85;3.17;;;;;;;;;;5106349;27;20123;-64
2022/06/03 09:43:45;;;;;;;7.18;3.97;;;;;;;;;;5110083;27;20134;-65
2022/06/03 09:46:12;;;;;;;13.50;3.15;;;;;;;;;;5114587;27;20333;-64
2022/06/03 09:48:39;;;;;;;8.25;3.78;;;;;;;;;;5117029;27;20500;-64
2022/06/03 09:51:15;;;;;;;5.32;2.90;;;;;;;;;;5119084;27;20975;-64
2022/06/03 09:53:43;;;;;;;9.82;4.00;;;;;;;;;;5113005;27;20039;-64
2022/06/03 09:56:15;;;;;;;12.05;5.38;;;;;;;;;;5114796;27;20047;-64
2022/06/03 09:58:41;;;;;;;9.75;4.82;;;;;;;;;;5108297;27;20047;-64
2022/06/03 10:01:09;;;;;;;16.35;5.90;;;;;;;;;;5113801;27;20044;-65
2022/06/03 10:03:34;;;;;;;13.05;5.05;;;;;;;;;;5111043;27;20059;-64
2022/06/03 10:06:00;;;;;;;11.77;4.90;;;;;;;;;;5111225;27;20044;-62
2022/06/03 10:12:48;;;;;;;9.45;4.10;;;;;;;;;;5109459;27;20138;-64
2022/06/03 10:14:00;;;;;;;9.88;4.38;;;;;;;;;;5120045;27;20436;-65
2022/06/03 10:16:28;;;;;;;26.13;6.15;;;;;;;;;;5117702;27;20047;-60
2022/06/03 10:18:56;;;;;;;19.40;4.82;;;;;;;;;;5114481;27;20212;-58
2022/06/03 10:21:21;;;;;;;5.93;3.08;;;;;;;;;;5109258;27;20055;-58
2022/06/03 10:23:52;;;;;;;10.57;3.28;;;;;;;;;;5110898;27;20047;-60
2022/06/03 10:26:22;;;;;;;11.68;6.32;;;;;;;;;;5120053;27;20115;-60
2022/06/03 10:28:48;;;;;;;8.60;4.57;;;;;;;;;;5120150;27;20073;-60
2022/06/03 10:31:15;;;;;;;6.65;2.88;;;;;;;;;;5112714;27;20044;-60
2022/06/03 10:33:50;;;;;;;9.00;3.30;;;;;;;;;;5111554;27;20116;-60
2022/06/03 10:36:16;;;;;;;5.95;3.47;;;;;;;;;;5111995;27;20048;-60
2022/06/03 10:38:41;;;;;;;1.70;1.50;;;;;;;;;;5107854;27;20058;-58
2022/06/03 10:41:09;;;;;;;7.05;3.47;;;;;;;;;;5108987;27;20111;-59
2022/06/03 10:43:36;;;;;;;32.47;5.40;;;;;;;;;;5110986;27;20519;-59
2022/06/03 10:46:15;;;;;;;11.65;4.07;;;;;;;;;;5114238;27;20051;-59
2022/06/03 10:48:40;;;;;;;9.00;3.17;;;;;;;;;;5113180;27;20044;-52
2022/06/03 10:51:12;;;;;;;5.07;2.55;;;;;;;;;;5115389;27;20523;-48
2022/06/03 11:01:53;;;;;;;9.60;3.35;;;;;;;;;;5118829;27;20185;-51
2022/06/03 11:04:27;;;;;;;6.57;3.83;;;;;;;;;;5119032;27;20421;-49
2022/06/03 11:06:53;;;;;;;12.45;2.60;;;;;;;;;;5113403;27;20538;-48
2022/06/03 11:09:19;;;;;;;12.82;3.83;;;;;;;;;;5121174;27;20484;-51
2022/06/03 11:11:48;;;;;;;8.98;3.50;;;;;;;;;;5121379;27;20491;-53
2022/06/03 11:14:23;;;;;;;3.97;2.28;;;;;;;;;;5109243;27;20408;-53
2022/06/03 11:17:00;;;;;;;6.00;2.40;;;;;;;;;;5118321;27;20080;-51
2022/06/03 11:19:28;;;;;;;4.10;2.75;;;;;;;;;;5118336;27;20040;-51
2022/06/03 11:22:12;;;;;;;9.25;3.05;;;;;;;;;;5107840;27;20042;-50
2022/06/03 11:24:38;;;;;;;4.38;2.95;;;;;;;;;;5115212;27;20138;-47
2022/06/03 11:27:05;;;;;;;5.85;3.78;;;;;;;;;;5117219;27;20255;-50
2022/06/03 11:29:32;;;;;;;6.38;2.88;;;;;;;;;;5112190;27;20093;-51
2022/06/03 11:31:57;;;;;;;3.58;1.88;;;;;;;;;;5121702;27;20054;-53
2022/06/03 11:34:32;;;;;;;11.20;3.50;;;;;;;;;;5117232;27;20043;-52
2022/06/03 11:37:00;;;;;;;8.93;4.03;;;;;;;;;;5117786;27;20043;-52
2022/06/03 11:39:33;;;;;;;12.85;3.08;;;;;;;;;;5118952;27;20043;-52
2022/06/03 11:42:03;;;;;;;6.90;2.55;;;;;;;;;;5110507;27;20047;-49
2022/06/03 11:44:37;;;;;;;5.87;2.97;;;;;;;;;;5116210;27;20130;-49
2022/06/03 11:47:21;;;;;;;8.00;3.28;;;;;;;;;;5116080;27;20100;-51
2022/06/03 11:49:47;;;;;;;5.50;2.40;;;;;;;;;;5106627;27;20058;-52
2022/06/03 11:52:12;;;;;;;3.17;2.30;;;;;;;;;;5105411;27;20047;-49
2022/06/03 11:54:38;;;;;;;6.93;3.38;;;;;;;;;;5114667;27;20039;-49
2022/06/03 11:57:05;;;;;;;3.05;1.98;;;;;;;;;;5114017;27;20166;-47
2022/06/03 11:59:38;;;;;;;8.50;2.90;;;;;;;;;;5110941;27;20064;-51
2022/06/03 12:02:18;;;;;;;15.48;2.63;;;;;;;;;;5106685;27;20100;-51
2022/06/03 12:04:48;;;;;;;2.00;1.33;;;;;;;;;;5113584;27;20131;-51
2022/06/03 12:07:22;;;;;;;13.80;2.78;;;;;;;;;;5113852;27;20070;-53
2022/06/03 12:09:50;;;;;;;8.35;4.18;;;;;;;;;;5116774;27;20104;-51
2022/06/03 12:15:27;;;;;;;17.35;3.88;;;;;;;;;;5109576;27;20050;-51
2022/06/03 12:17:52;;;;;;;12.00;4.13;;;;;;;;;;5109455;27;20031;-53
2022/06/03 12:20:30;;;;;;;10.23;4.25;;;;;;;;;;5110223;27;20039;-52
2022/06/03 12:22:55;;;;;;;126.00;23.60;;;;;;;;;;5098620;28;20461;-52
2022/06/03 12:25:36;;;;;;;33.10;8.13;;;;;;;;;;5108953;28;20046;-54
2022/06/03 12:28:03;;;;;;;14.65;3.80;;;;;;;;;;5114605;28;20636;-53
2022/06/03 12:30:35;;;;;;;7.97;3.45;;;;;;;;;;5113812;28;20044;-52
2022/06/03 12:33:06;;;;;;;79.25;8.30;;;;;;;;;;5109799;28;20411;-49
2022/06/03 12:35:47;;;;;;;11.00;3.42;;;;;;;;;;5115240;28;20043;-52
2022/06/03 12:38:18;;;;;;;86.15;8.10;;;;;;;;;;5113621;27;20082;-54
2022/06/03 12:40:45;;;;;;;6.70;2.03;;;;;;;;;;5115608;27;20069;-53
2022/06/03 12:43:23;;;;;;;24.08;4.57;;;;;;;;;;5109063;27;20045;-56
2022/06/03 12:46:07;;;;;;;11.88;3.83;;;;;;;;;;5110476;27;20051;-52
2022/06/03 12:48:51;;;;;;;15.20;3.63;;;;;;;;;;5110323;28;20051;-50
2022/06/03 12:51:23;;;;;;;17.70;4.40;;;;;;;;;;5111937;28;20043;-45
2022/06/03 12:53:50;;;;;;;19.23;3.28;;;;;;;;;;5113192;28;20404;-49
2022/06/03 12:56:35;;;;;;;20.95;3.53;;;;;;;;;;5107955;28;20036;-45
2022/06/03 12:59:19;;;;;;;22.17;6.65;;;;;;;;;;5108135;28;20039;-47
2022/06/03 13:01:47;;;;;;;11.50;4.38;;;;;;;;;;5106103;28;20134;-48
2022/06/03 13:04:31;;;;;;;10.25;4.35;;;;;;;;;;5108686;27;20424;-51
2022/06/03 13:07:11;;;;;;;9.88;4.10;;;;;;;;;;5114828;27;20127;-46
2022/06/03 13:09:52;;;;;;;23.77;5.80;;;;;;;;;;5118389;27;20720;-51
2022/06/03 13:12:28;;;;;;;5.65;3.05;;;;;;;;;;5116345;27;20044;-46
2022/06/03 13:14:53;;;;;;;8.25;3.13;;;;;;;;;;5114527;27;20039;-46
2022/06/03 13:17:55;;;;;;;13.32;3.25;;;;;;;;;;5107790;27;20484;-49
2022/06/03 13:20:43;;;;;;;16.13;3.88;;;;;;;;;;5074782;28;20040;-46
2022/06/03 13:23:26;;;;;;;8.15;2.50;;;;;;;;;;5068044;27;20066;-45
2022/06/03 13:25:54;;;;;;;155.88;23.17;;;;;;;;;;5111905;27;20103;-48
2022/06/03 13:28:36;;;;;;;9.05;2.80;;;;;;;;;;5116912;27;20047;-46
2022/06/03 13:31:06;;;;;;;7.05;2.35;;;;;;;;;;5118765;27;20718;-47
2022/06/03 13:33:31;;;;;;;3.20;1.73;;;;;;;;;;5114410;27;20126;-49
2022/06/03 13:36:03;;;;;;;3.83;2.28;;;;;;;;;;5118179;27;20130;-47
2022/06/03 13:38:39;;;;;;;13.55;2.17;;;;;;;;;;5113024;27;20046;-52
2022/06/03 13:44:06;;;;;;;77.72;7.63;;;;;;;;;;5115755;27;20050;-45
2022/06/03 13:46:33;;;;;;;7.05;2.97;;;;;;;;;;5116737;27;20040;-45
2022/06/03 13:49:01;;;;;;;37.22;6.85;;;;;;;;;;5113390;27;20511;-51
2022/06/03 13:51:31;;;;;;;6.13;3.97;;;;;;;;;;5116930;27;20458;-47
2022/06/03 13:54:01;;;;;;;4.95;2.75;;;;;;;;;;5119203;27;20055;-48
2022/06/03 13:56:28;;;;;;;16.75;3.60;;;;;;;;;;5117962;27;20138;-48
2022/06/03 13:58:54;;;;;;;3.60;1.65;;;;;;;;;;5115489;27;20548;-48
2022/06/03 14:01:25;;;;;;;7.60;2.78;;;;;;;;;;5111150;27;20060;-48
2022/06/03 14:03:56;;;;;;;9.15;2.95;;;;;;;;;;5115594;27;20109;-48
2022/06/03 14:06:27;;;;;;;5.13;2.92;;;;;;;;;;5117885;27;20264;-46
2022/06/03 14:08:56;;;;;;;12.38;3.83;;;;;;;;;;5113524;27;20289;-49
2022/06/03 14:11:30;;;;;;;7.78;3.22;;;;;;;;;;5115332;27;20058;-45
2022/06/03 14:14:19;;;;;;;14.18;2.20;;;;;;;;;;5115873;27;20051;-46
2022/06/03 14:16:57;;;;;;;9.85;2.70;;;;;;;;;;5116275;27;20115;-51
2022/06/03 14:19:44;;;;;;;11.43;3.35;;;;;;;;;;5117806;27;20541;-49
2022/06/03 14:22:22;;;;;;;1999.90;352.70;;;;;;;;;;5113049;27;20130;-58
2022/06/03 14:24:59;;;;;;;7.25;2.97;;;;;;;;;;5108986;27;20492;-46
2022/06/03 14:27:25;;;;;;;3.17;1.90;;;;;;;;;;5107510;27;20055;-46
2022/06/03 14:29:50;;;;;;;4.78;3.35;;;;;;;;;;5099145;27;20566;-48
2022/06/03 14:32:20;;;;;;;4.72;2.42;;;;;;;;;;5118338;27;20046;-48
2022/06/03 14:34:48;;;;;;;6.40;1.70;;;;;;;;;;5119361;27;20047;-47
2022/06/03 14:37:18;;;;;;;13.18;3.35;;;;;;;;;;5118211;27;20291;-47
2022/06/03 14:39:44;;;;;;;4.18;2.25;;;;;;;;;;5117165;27;20043;-46
2022/06/03 14:42:11;;;;;;;6.75;2.60;;;;;;;;;;5119776;27;20051;-46
2022/06/03 14:44:39;;;;;;;15.80;3.33;;;;;;;;;;5117214;27;20104;-49
2022/06/03 14:47:05;;;;;;;18.02;2.05;;;;;;;;;;5115011;27;20059;-47
2022/06/03 14:49:59;;;;;;;6.13;1.95;;;;;;;;;;5119324;27;20043;-48
2022/06/03 14:52:28;;;;;;;8.68;1.70;;;;;;;;;;5105439;27;20039;-47
2022/06/03 14:54:56;;;;;;;2.00;1.20;;;;;;;;;;5118303;27;20110;-51
2022/06/03 14:57:39;;;;;;;10.82;1.33;;;;;;;;;;5115052;27;20143;-51
2022/06/03 15:00:11;;;;;;;8.40;3.90;;;;;;;;;;5116153;27;20107;-46
2022/06/03 15:02:36;;;;;;;5.63;2.55;;;;;;;;;;5110559;27;20210;-48
2022/06/03 15:05:11;;;;;;;7.95;3.28;;;;;;;;;;5115608;27;20553;-46
2022/06/03 15:07:38;;;;;;;7.45;2.78;;;;;;;;;;5115797;27;20050;-49
2022/06/03 15:10:06;;;;;;;6.57;2.47;;;;;;;;;;5115123;27;20051;-47
2022/06/03 15:12:32;;;;;;;12.07;1.98;;;;;;;;;;5117721;27;20080;-45
2022/06/03 15:14:59;;;;;;;8.88;4.20;;;;;;;;;;5122471;27;20049;-48
2022/06/03 15:17:29;;;;;;;9.13;2.22;;;;;;;;;;5120394;27;20039;-44
2022/06/03 15:19:58;;;;;;;4.90;1.83;;;;;;;;;;5113957;27;20061;-44
2022/06/03 15:22:30;;;;;;;6.13;2.80;;;;;;;;;;5109714;27;20040;-47
2022/06/03 15:25:01;;;;;;;5.68;2.08;;;;;;;;;;5109639;27;20039;-47
2022/06/03 15:27:46;;;;;;;6.25;1.63;;;;;;;;;;5106525;27;20071;-45
2022/06/03 15:30:32;;;;;;;2.00;1.45;;;;;;;;;;5111127;27;20102;-44
2022/06/03 15:32:58;;;;;;;9.38;1.73;;;;;;;;;;5108268;27;20038;-46
2022/06/03 15:35:24;;;;;;;2.53;2.10;;;;;;;;;;5108894;27;20136;-45
2022/06/03 15:37:50;;;;;;;4.60;2.45;;;;;;;;;;5115449;27;20574;-46
2022/06/03 15:40:21;;;;;;;4.85;3.13;;;;;;;;;;5114565;27;20035;-47
2022/06/03 15:42:54;;;;;;;3.67;1.85;;;;;;;;;;5113020;27;20046;-44
2022/06/03 15:45:34;;;;;;;9.70;3.95;;;;;;;;;;5116322;27;20030;-44